sensor_id;sensor_type;location;lat;lon;timestamp;temperature;humidity
21805;DHT22;11064;47.102;15.452;2023-03-08T05:03:27;1.80;99.90
21805;DHT22;11064;47.102;15.452;2023-03-08T05:05:54;1.70;99.90
21805;DHT22;11064;47.102;15.452;2023-03-08T05:08:21;1.60;99.90
21805;DHT22;11064;47.102;15.452;2023-03-08T05:10:56;1.60;99.90
21805;DHT22;11064;47.102;15.452;2023-03-08T05:13:24;1.50;99.90
21805;DHT22;11064;47.102;15.452;2023-03-08T05:15:50;1.40;99.90
21805;DHT22;11064;47.102;15.452;2023-03-08T05:18:16;1.30;99.90
21805;DHT22;11064;47.102;15.452;2023-03-08T05:20:43;1.30;99.90
21805;DHT22;11064;47.102;15.452;2023-03-08T05:23:10;1.20;99.90
21805;DHT22;11064;47.102;15.452;2023-03-08T05:25:42;1.30;99.90
21805;DHT22;11064;47.102;15.452;2023-03-08T05:28:08;1.30;99.90
21805;DHT22;11064;47.102;15.452;2023-03-08T05:30:34;1.30;99.90
21805;DHT22;11064;47.102;15.452;2023-03-08T05:32:59;1.40;99.90
21805;DHT22;11064;47.102;15.452;2023-03-08T05:35:25;1.30;99.90
21805;DHT22;11064;47.102;15.452;2023-03-08T05:37:51;1.30;99.90
21805;DHT22;11064;47.102;15.452;2023-03-08T05:40:17;1.30;99.90
21805;DHT22;11064;47.102;15.452;2023-03-08T05:42:43;1.40;99.90
21805;DHT22;11064;47.102;15.452;2023-03-08T05:45:09;1.40;99.90
21805;DHT22;11064;47.102;15.452;2023-03-08T05:47:35;1.50;99.90
21805;DHT22;11064;47.102;15.452;2023-03-08T05:50:01;1.60;99.90
21805;DHT22;11064;47.102;15.452;2023-03-08T05:52:28;1.70;99.90
21805;DHT22;11064;47.102;15.452;2023-03-08T05:54:55;1.80;99.90
21805;DHT22;11064;47.102;15.452;2023-03-08T05:57:21;1.80;99.90
21805;DHT22;11064;47.102;15.452;2023-03-08T05:59:47;1.90;99.90
21805;DHT22;11064;47.102;15.452;2023-03-08T06:02:13;1.90;99.90
21805;DHT22;11064;47.102;15.452;2023-03-08T06:04:38;2.00;99.90
21805;DHT22;11064;47.102;15.452;2023-03-08T06:07:04;2.00;99.90
21805;DHT22;11064;47.102;15.452;2023-03-08T06:09:30;2.10;99.90
21805;DHT22;11064;47.102;15.452;2023-03-08T06:11:56;2.20;99.90
21805;DHT22;11064;47.102;15.452;2023-03-08T06:14:22;2.20;99.90
21805;DHT22;11064;47.102;15.452;2023-03-08T06:16:47;2.40;99.90
21805;DHT22;11064;47.102;15.452;2023-03-08T06:19:14;2.30;99.90
21805;DHT22;11064;47.102;15.452;2023-03-08T06:21:40;2.40;99.90
21805;DHT22;11064;47.102;15.452;2023-03-08T06:24:06;2.40;99.90
21805;DHT22;11064;47.102;15.452;2023-03-08T06:26:31;2.50;99.90
21805;DHT22;11064;47.102;15.452;2023-03-08T06:28:57;2.60;99.90
21805;DHT22;11064;47.102;15.452;2023-03-08T06:31:23;2.70;99.90
21805;DHT22;11064;47.102;15.452;2023-03-08T06:33:49;2.80;99.90
21805;DHT22;11064;47.102;15.452;2023-03-08T06:36:17;2.90;99.90
21805;DHT22;11064;47.102;15.452;2023-03-08T06:38:44;3.00;99.90
21805;DHT22;11064;47.102;15.452;2023-03-08T06:41:11;3.10;99.90
21805;DHT22;11064;47.102;15.452;2023-03-08T06:43:37;3.30;99.90
21805;DHT22;11064;47.102;15.452;2023-03-08T06:46:05;3.50;99.90
21805;DHT22;11064;47.102;15.452;2023-03-08T06:48:33;3.60;99.90
21805;DHT22;11064;47.102;15.452;2023-03-08T06:50:59;3.70;99.90
21805;DHT22;11064;47.102;15.452;2023-03-08T06:53:25;3.90;99.90
21805;DHT22;11064;47.102;15.452;2023-03-08T06:55:51;4.10;99.90
21805;DHT22;11064;47.102;15.452;2023-03-08T06:58:18;4.30;99.90
21805;DHT22;11064;47.102;15.452;2023-03-08T07:00:44;4.40;99.90
21805;DHT22;11064;47.102;15.452;2023-03-08T07:03:11;4.50;99.90
21805;DHT22;11064;47.102;15.452;2023-03-08T07:05:38;4.50;99.90
21805;DHT22;11064;47.102;15.452;2023-03-08T07:08:04;4.60;99.90
21805;DHT22;11064;47.102;15.452;2023-03-08T07:10:30;4.80;99.90
21805;DHT22;11064;47.102;15.452;2023-03-08T07:12:57;5.00;99.90
21805;DHT22;11064;47.102;15.452;2023-03-08T07:15:23;5.10;99.90
21805;DHT22;11064;47.102;15.452;2023-03-08T07:17:51;5.30;99.90
21805;DHT22;11064;47.102;15.452;2023-03-08T07:20:21;5.70;99.90
21805;DHT22;11064;47.102;15.452;2023-03-08T07:22:48;6.00;99.90
21805;DHT22;11064;47.102;15.452;2023-03-08T07:25:15;6.30;99.90
21805;DHT22;11064;47.102;15.452;2023-03-08T07:27:42;6.30;99.90
21805;DHT22;11064;47.102;15.452;2023-03-08T07:30:09;6.30;99.90
21805;DHT22;11064;47.102;15.452;2023-03-08T07:32:36;6.30;99.90
21805;DHT22;11064;47.102;15.452;2023-03-08T07:35:04;6.40;99.90
21805;DHT22;11064;47.102;15.452;2023-03-08T07:37:31;6.40;99.90
21805;DHT22;11064;47.102;15.452;2023-03-08T07:39:57;6.30;99.90
21805;DHT22;11064;47.102;15.452;2023-03-08T07:42:23;6.30;99.90
21805;DHT22;11064;47.102;15.452;2023-03-08T07:44:49;6.50;99.90
21805;DHT22;11064;47.102;15.452;2023-03-08T07:47:14;6.50;99.90
21805;DHT22;11064;47.102;15.452;2023-03-08T07:49:40;6.80;99.90
21805;DHT22;11064;47.102;15.452;2023-03-08T07:52:06;6.80;99.90
21805;DHT22;11064;47.102;15.452;2023-03-08T07:54:32;7.00;99.90
21805;DHT22;11064;47.102;15.452;2023-03-08T07:56:57;7.00;99.90
21805;DHT22;11064;47.102;15.452;2023-03-08T07:59:23;7.20;99.90
21805;DHT22;11064;47.102;15.452;2023-03-08T08:01:49;7.30;99.90
21805;DHT22;11064;47.102;15.452;2023-03-08T08:04:15;7.20;99.90
21805;DHT22;11064;47.102;15.452;2023-03-08T08:06:41;7.10;99.90
21805;DHT22;11064;47.102;15.452;2023-03-08T08:09:08;7.20;99.90
21805;DHT22;11064;47.102;15.452;2023-03-08T08:11:36;7.30;99.90
21805;DHT22;11064;47.102;15.452;2023-03-08T08:14:03;7.50;99.90
21805;DHT22;11064;47.102;15.452;2023-03-08T08:16:29;7.80;99.90
21805;DHT22;11064;47.102;15.452;2023-03-08T08:18:55;7.80;99.90
21805;DHT22;11064;47.102;15.452;2023-03-08T08:21:21;8.00;99.90
21805;DHT22;11064;47.102;15.452;2023-03-08T08:23:48;8.20;99.90
21805;DHT22;11064;47.102;15.452;2023-03-08T08:26:16;8.60;99.90
21805;DHT22;11064;47.102;15.452;2023-03-08T08:28:44;8.70;99.90
21805;DHT22;11064;47.102;15.452;2023-03-08T08:31:13;9.00;99.90
21805;DHT22;11064;47.102;15.452;2023-03-08T08:33:40;9.20;99.90
21805;DHT22;11064;47.102;15.452;2023-03-08T08:36:08;9.10;99.90
21805;DHT22;11064;47.102;15.452;2023-03-08T08:38:34;9.30;99.60
21805;DHT22;11064;47.102;15.452;2023-03-08T08:41:01;9.50;98.80
21805;DHT22;11064;47.102;15.452;2023-03-08T08:43:28;9.40;99.00
21805;DHT22;11064;47.102;15.452;2023-03-08T08:45:56;9.60;99.00
21805;DHT22;11064;47.102;15.452;2023-03-08T08:48:22;10.10;98.20
21805;DHT22;11064;47.102;15.452;2023-03-08T08:50:48;10.30;96.40
21805;DHT22;11064;47.102;15.452;2023-03-08T08:53:14;10.50;94.70
21805;DHT22;11064;47.102;15.452;2023-03-08T08:55:40;10.60;94.20
21805;DHT22;11064;47.102;15.452;2023-03-08T08:58:06;10.70;94.30
21805;DHT22;11064;47.102;15.452;2023-03-08T09:00:33;10.60;94.30
21805;DHT22;11064;47.102;15.452;2023-03-08T09:03:00;10.60;93.80
21805;DHT22;11064;47.102;15.452;2023-03-08T09:05:26;10.60;92.90
21805;DHT22;11064;47.102;15.452;2023-03-08T09:07:54;10.60;92.80
21805;DHT22;11064;47.102;15.452;2023-03-08T09:10:20;10.60;92.10
21805;DHT22;11064;47.102;15.452;2023-03-08T09:12:46;10.70;90.50
21805;DHT22;11064;47.102;15.452;2023-03-08T09:15:12;10.80;90.20
21805;DHT22;11064;47.102;15.452;2023-03-08T09:17:38;10.80;89.60
21805;DHT22;11064;47.102;15.452;2023-03-08T09:20:05;10.70;88.40
21805;DHT22;11064;47.102;15.452;2023-03-08T09:22:37;10.80;89.80
21805;DHT22;11064;47.102;15.452;2023-03-08T09:25:07;10.90;88.30
21805;DHT22;11064;47.102;15.452;2023-03-08T09:27:33;11.20;85.70
21805;DHT22;11064;47.102;15.452;2023-03-08T09:29:59;11.30;83.90
21805;DHT22;11064;47.102;15.452;2023-03-08T09:32:25;11.30;83.70
21805;DHT22;11064;47.102;15.452;2023-03-08T09:34:52;11.20;84.40
21805;DHT22;11064;47.102;15.452;2023-03-08T09:37:19;11.20;84.60
21805;DHT22;11064;47.102;15.452;2023-03-08T09:39:45;11.20;84.70
21805;DHT22;11064;47.102;15.452;2023-03-08T09:42:21;11.30;82.10
21805;DHT22;11064;47.102;15.452;2023-03-08T09:50:06;11.70;80.30
21805;DHT22;11064;47.102;15.452;2023-03-08T09:52:39;11.90;81.20
21805;DHT22;11064;47.102;15.452;2023-03-08T09:55:29;11.90;81.10
21805;DHT22;11064;47.102;15.452;2023-03-08T09:58:01;12.30;79.70
21805;DHT22;11064;47.102;15.452;2023-03-08T10:00:31;11.90;80.40
21805;DHT22;11064;47.102;15.452;2023-03-08T10:03:24;12.10;78.80
21805;DHT22;11064;47.102;15.452;2023-03-08T10:06:23;12.10;76.70
21805;DHT22;11064;47.102;15.452;2023-03-08T10:12:21;11.50;80.00
21805;DHT22;11064;47.102;15.452;2023-03-08T10:14:49;11.90;78.80
21805;DHT22;11064;47.102;15.452;2023-03-08T10:17:21;12.30;76.80
21805;DHT22;11064;47.102;15.452;2023-03-08T10:20:06;12.50;77.10
21805;DHT22;11064;47.102;15.452;2023-03-08T10:22:36;12.30;76.90
21805;DHT22;11064;47.102;15.452;2023-03-08T10:27:41;12.50;77.50
21805;DHT22;11064;47.102;15.452;2023-03-08T10:30:16;12.60;77.10
21805;DHT22;11064;47.102;15.452;2023-03-08T10:32:46;12.50;77.10
21805;DHT22;11064;47.102;15.452;2023-03-08T10:35:12;12.30;78.20
21805;DHT22;11064;47.102;15.452;2023-03-08T10:37:38;12.70;77.30
21805;DHT22;11064;47.102;15.452;2023-03-08T10:40:16;12.60;76.60
21805;DHT22;11064;47.102;15.452;2023-03-08T10:42:52;13.00;75.50
21805;DHT22;11064;47.102;15.452;2023-03-08T10:45:22;13.30;75.20
21805;DHT22;11064;47.102;15.452;2023-03-08T10:48:19;12.80;73.40
21805;DHT22;11064;47.102;15.452;2023-03-08T10:50:45;12.30;77.00
21805;DHT22;11064;47.102;15.452;2023-03-08T10:53:22;12.30;76.70
21805;DHT22;11064;47.102;15.452;2023-03-08T10:55:50;12.00;76.60
21805;DHT22;11064;47.102;15.452;2023-03-08T10:58:35;11.40;78.30
21805;DHT22;11064;47.102;15.452;2023-03-08T11:01:45;11.30;81.10
21805;DHT22;11064;47.102;15.452;2023-03-08T11:04:15;11.40;81.80
21805;DHT22;11064;47.102;15.452;2023-03-08T11:06:41;11.70;82.60
21805;DHT22;11064;47.102;15.452;2023-03-08T11:11:51;11.90;80.90
21805;DHT22;11064;47.102;15.452;2023-03-08T11:14:17;12.50;81.70
21805;DHT22;11064;47.102;15.452;2023-03-08T11:38:38;11.20;83.00
21805;DHT22;11064;47.102;15.452;2023-03-08T11:43:59;11.40;85.30
21805;DHT22;11064;47.102;15.452;2023-03-08T11:49:29;11.50;84.70
21805;DHT22;11064;47.102;15.452;2023-03-08T11:52:24;11.60;81.90
21805;DHT22;11064;47.102;15.452;2023-03-08T11:57:20;11.20;80.10
21805;DHT22;11064;47.102;15.452;2023-03-08T11:59:52;11.00;80.70
21805;DHT22;11064;47.102;15.452;2023-03-08T12:02:26;11.00;83.90
21805;DHT22;11064;47.102;15.452;2023-03-08T12:11:01;10.90;83.00
21805;DHT22;11064;47.102;15.452;2023-03-08T12:18:48;11.40;82.90
21805;DHT22;11064;47.102;15.452;2023-03-08T12:23:57;11.70;81.00
21805;DHT22;11064;47.102;15.452;2023-03-08T12:26:36;11.50;80.20
21805;DHT22;11064;47.102;15.452;2023-03-08T12:29:10;11.40;82.00
21805;DHT22;11064;47.102;15.452;2023-03-08T12:31:46;11.70;81.10
21805;DHT22;11064;47.102;15.452;2023-03-08T12:34:37;11.80;80.00
21805;DHT22;11064;47.102;15.452;2023-03-08T12:37:03;11.90;81.90
21805;DHT22;11064;47.102;15.452;2023-03-08T12:39:32;12.30;80.20
21805;DHT22;11064;47.102;15.452;2023-03-08T12:44:37;13.20;76.30
21805;DHT22;11064;47.102;15.452;2023-03-08T12:49:51;13.90;74.40
21805;DHT22;11064;47.102;15.452;2023-03-08T12:55:16;14.40;72.30
21805;DHT22;11064;47.102;15.452;2023-03-08T12:57:52;14.60;70.10
21805;DHT22;11064;47.102;15.452;2023-03-08T13:02:44;14.00;70.10
21805;DHT22;11064;47.102;15.452;2023-03-08T13:05:28;13.90;72.10
21805;DHT22;11064;47.102;15.452;2023-03-08T13:11:03;13.70;73.70
21805;DHT22;11064;47.102;15.452;2023-03-08T13:13:56;13.40;74.20
21805;DHT22;11064;47.102;15.452;2023-03-08T13:16:34;13.50;74.20
21805;DHT22;11064;47.102;15.452;2023-03-08T13:24:40;12.90;76.20
21805;DHT22;11064;47.102;15.452;2023-03-08T13:30:36;12.60;77.00
21805;DHT22;11064;47.102;15.452;2023-03-08T13:33:14;12.80;76.90
21805;DHT22;11064;47.102;15.452;2023-03-08T13:35:40;12.60;78.00
21805;DHT22;11064;47.102;15.452;2023-03-08T13:38:05;12.60;77.90
21805;DHT22;11064;47.102;15.452;2023-03-08T13:40:32;12.50;78.80
21805;DHT22;11064;47.102;15.452;2023-03-08T13:43:01;11.90;80.90
21805;DHT22;11064;47.102;15.452;2023-03-08T13:45:27;11.80;81.80
21805;DHT22;11064;47.102;15.452;2023-03-08T13:47:59;11.70;81.90
21805;DHT22;11064;47.102;15.452;2023-03-08T13:50:33;11.70;82.90
21805;DHT22;11064;47.102;15.452;2023-03-08T13:53:01;11.60;84.00
21805;DHT22;11064;47.102;15.452;2023-03-08T13:55:55;11.40;85.00
21805;DHT22;11064;47.102;15.452;2023-03-08T14:01:02;11.10;86.00
21805;DHT22;11064;47.102;15.452;2023-03-08T14:03:30;11.00;87.40
21805;DHT22;11064;47.102;15.452;2023-03-08T14:05:57;10.90;87.50
21805;DHT22;11064;47.102;15.452;2023-03-08T14:08:25;10.80;87.40
21805;DHT22;11064;47.102;15.452;2023-03-08T14:11:03;10.70;88.90
21805;DHT22;11064;47.102;15.452;2023-03-08T14:13:36;10.70;88.50
21805;DHT22;11064;47.102;15.452;2023-03-08T14:16:04;10.70;89.20
21805;DHT22;11064;47.102;15.452;2023-03-08T14:18:39;10.70;90.10
21805;DHT22;11064;47.102;15.452;2023-03-08T14:21:18;10.70;89.70
21805;DHT22;11064;47.102;15.452;2023-03-08T14:26:31;10.60;90.30
21805;DHT22;11064;47.102;15.452;2023-03-08T14:29:17;10.60;90.50
21805;DHT22;11064;47.102;15.452;2023-03-08T14:32:22;10.50;90.50
21805;DHT22;11064;47.102;15.452;2023-03-08T14:34:49;10.50;90.50
21805;DHT22;11064;47.102;15.452;2023-03-08T14:37:27;10.50;90.40
21805;DHT22;11064;47.102;15.452;2023-03-08T14:42:44;10.50;90.70
21805;DHT22;11064;47.102;15.452;2023-03-08T14:45:21;10.60;90.60
21805;DHT22;11064;47.102;15.452;2023-03-08T14:47:50;10.60;90.50
21805;DHT22;11064;47.102;15.452;2023-03-08T14:50:24;10.60;90.40
21805;DHT22;11064;47.102;15.452;2023-03-08T14:52:53;10.60;90.60
21805;DHT22;11064;47.102;15.452;2023-03-08T14:55:28;10.60;90.60
21805;DHT22;11064;47.102;15.452;2023-03-08T14:58:03;10.60;90.40
21805;DHT22;11064;47.102;15.452;2023-03-08T15:00:32;10.60;90.80
21805;DHT22;11064;47.102;15.452;2023-03-08T15:02:59;10.60;90.70
21805;DHT22;11064;47.102;15.452;2023-03-08T15:05:26;10.60;90.20
21805;DHT22;11064;47.102;15.452;2023-03-08T15:07:53;10.60;90.30
21805;DHT22;11064;47.102;15.452;2023-03-08T15:12:48;10.60;90.00
21805;DHT22;11064;47.102;15.452;2023-03-08T15:15:14;10.70;88.40
21805;DHT22;11064;47.102;15.452;2023-03-08T15:17:40;10.70;88.50
21805;DHT22;11064;47.102;15.452;2023-03-08T15:20:08;10.80;87.10
21805;DHT22;11064;47.102;15.452;2023-03-08T15:22:37;10.90;87.30
21805;DHT22;11064;47.102;15.452;2023-03-08T15:25:15;10.90;86.40
21805;DHT22;11064;47.102;15.452;2023-03-08T15:27:42;10.90;85.60
21805;DHT22;11064;47.102;15.452;2023-03-08T15:30:22;10.90;85.70
21805;DHT22;11064;47.102;15.452;2023-03-08T15:32:49;10.80;85.60
21805;DHT22;11064;47.102;15.452;2023-03-08T15:35:16;10.70;84.40
21805;DHT22;11064;47.102;15.452;2023-03-08T15:37:43;10.70;84.90
21805;DHT22;11064;47.102;15.452;2023-03-08T15:42:41;10.40;84.60
21805;DHT22;11064;47.102;15.452;2023-03-08T15:45:08;10.30;84.20
21805;DHT22;11064;47.102;15.452;2023-03-08T15:47:35;10.30;84.30
21805;DHT22;11064;47.102;15.452;2023-03-08T15:50:01;10.20;84.60
21805;DHT22;11064;47.102;15.452;2023-03-08T15:52:28;10.10;84.20
21805;DHT22;11064;47.102;15.452;2023-03-08T15:54:54;10.00;84.90
21805;DHT22;11064;47.102;15.452;2023-03-08T15:57:20;10.00;85.20
21805;DHT22;11064;47.102;15.452;2023-03-08T15:59:46;9.90;84.50
21805;DHT22;11064;47.102;15.452;2023-03-08T16:02:16;9.80;85.60
21805;DHT22;11064;47.102;15.452;2023-03-08T16:04:43;9.70;85.70
21805;DHT22;11064;47.102;15.452;2023-03-08T16:07:17;9.60;85.00
21805;DHT22;11064;47.102;15.452;2023-03-08T16:09:44;9.40;86.00
21805;DHT22;11064;47.102;15.452;2023-03-08T16:12:13;9.30;86.10
21805;DHT22;11064;47.102;15.452;2023-03-08T16:14:39;9.30;86.80
21805;DHT22;11064;47.102;15.452;2023-03-08T16:17:10;9.20;85.70
21805;DHT22;11064;47.102;15.452;2023-03-08T16:19:36;9.30;84.60
21805;DHT22;11064;47.102;15.452;2023-03-08T16:22:02;9.30;85.50
21805;DHT22;11064;47.102;15.452;2023-03-08T16:24:29;9.30;85.50
21805;DHT22;11064;47.102;15.452;2023-03-08T16:26:55;9.20;85.80
21805;DHT22;11064;47.102;15.452;2023-03-08T16:29:22;9.30;86.30
21805;DHT22;11064;47.102;15.452;2023-03-08T16:31:48;9.40;84.40
21805;DHT22;11064;47.102;15.452;2023-03-08T16:34:15;9.20;85.50
21805;DHT22;11064;47.102;15.452;2023-03-08T16:36:41;9.10;85.90
21805;DHT22;11064;47.102;15.452;2023-03-08T16:39:08;8.80;86.70
21805;DHT22;11064;47.102;15.452;2023-03-08T16:41:35;8.70;87.00
21805;DHT22;11064;47.102;15.452;2023-03-08T16:44:02;8.60;87.40
21805;DHT22;11064;47.102;15.452;2023-03-08T16:46:28;8.40;88.30
21805;DHT22;11064;47.102;15.452;2023-03-08T16:48:54;8.40;88.60
21805;DHT22;11064;47.102;15.452;2023-03-08T16:51:23;8.20;89.00
21805;DHT22;11064;47.102;15.452;2023-03-08T16:53:49;8.20;89.20
21805;DHT22;11064;47.102;15.452;2023-03-08T16:56:23;8.20;89.80
21805;DHT22;11064;47.102;15.452;2023-03-08T16:58:50;8.20;89.50
21805;DHT22;11064;47.102;15.452;2023-03-08T17:01:17;8.10;90.00
21805;DHT22;11064;47.102;15.452;2023-03-08T17:03:44;8.10;90.10
21805;DHT22;11064;47.102;15.452;2023-03-08T17:06:12;8.10;90.00
21805;DHT22;11064;47.102;15.452;2023-03-08T17:08:38;7.90;90.00
21805;DHT22;11064;47.102;15.452;2023-03-08T17:11:04;8.00;89.50
21805;DHT22;11064;47.102;15.452;2023-03-08T17:13:33;8.20;89.60
21805;DHT22;11064;47.102;15.452;2023-03-08T17:15:59;8.20;88.10
21805;DHT22;11064;47.102;15.452;2023-03-08T17:18:25;8.30;87.60
21805;DHT22;11064;47.102;15.452;2023-03-08T17:20:51;8.40;87.10
21805;DHT22;11064;47.102;15.452;2023-03-08T17:23:19;8.30;87.40
21805;DHT22;11064;47.102;15.452;2023-03-08T17:25:45;8.30;87.80
21805;DHT22;11064;47.102;15.452;2023-03-08T17:28:11;8.40;87.30
21805;DHT22;11064;47.102;15.452;2023-03-08T17:30:40;8.60;86.30
21805;DHT22;11064;47.102;15.452;2023-03-08T17:33:09;8.60;86.20
21805;DHT22;11064;47.102;15.452;2023-03-08T17:35:40;8.60;86.40
21805;DHT22;11064;47.102;15.452;2023-03-08T17:38:07;8.70;86.00
21805;DHT22;11064;47.102;15.452;2023-03-08T17:40:34;8.80;85.80
21805;DHT22;11064;47.102;15.452;2023-03-08T17:42:59;9.20;84.10
21805;DHT22;11064;47.102;15.452;2023-03-08T17:45:27;9.30;83.30
21805;DHT22;11064;47.102;15.452;2023-03-08T17:47:54;9.40;83.10
21805;DHT22;11064;47.102;15.452;2023-03-08T17:50:26;9.40;82.40
21805;DHT22;11064;47.102;15.452;2023-03-08T17:52:54;9.30;83.00
21805;DHT22;11064;47.102;15.452;2023-03-08T17:55:20;9.20;82.90
21805;DHT22;11064;47.102;15.452;2023-03-08T17:57:46;9.00;84.10
21805;DHT22;11064;47.102;15.452;2023-03-08T18:00:13;8.90;85.10
21805;DHT22;11064;47.102;15.452;2023-03-08T18:02:39;8.70;85.50
21805;DHT22;11064;47.102;15.452;2023-03-08T18:05:06;8.60;85.90
21805;DHT22;11064;47.102;15.452;2023-03-08T18:07:32;8.70;85.80
21805;DHT22;11064;47.102;15.452;2023-03-08T18:09:58;8.50;86.70
21805;DHT22;11064;47.102;15.452;2023-03-08T18:12:26;8.40;87.00
21805;DHT22;11064;47.102;15.452;2023-03-08T18:14:53;8.20;88.20
21805;DHT22;11064;47.102;15.452;2023-03-08T18:17:21;8.30;87.20
21805;DHT22;11064;47.102;15.452;2023-03-08T18:19:47;8.40;86.90
21805;DHT22;11064;47.102;15.452;2023-03-08T18:22:14;8.50;86.70
21805;DHT22;11064;47.102;15.452;2023-03-08T18:24:41;8.30;87.10
21805;DHT22;11064;47.102;15.452;2023-03-08T18:27:07;8.20;87.90
21805;DHT22;11064;47.102;15.452;2023-03-08T18:29:34;8.00;89.90
21805;DHT22;11064;47.102;15.452;2023-03-08T18:32:02;7.80;89.40
21805;DHT22;11064;47.102;15.452;2023-03-08T18:34:28;8.20;88.60
21805;DHT22;11064;47.102;15.452;2023-03-08T18:36:55;8.00;88.80
21805;DHT22;11064;47.102;15.452;2023-03-08T18:39:23;8.00;88.40
21805;DHT22;11064;47.102;15.452;2023-03-08T18:41:50;8.00;88.60
21805;DHT22;11064;47.102;15.452;2023-03-08T18:44:18;7.80;89.00
21805;DHT22;11064;47.102;15.452;2023-03-08T18:46:44;8.10;88.50
21805;DHT22;11064;47.102;15.452;2023-03-08T18:49:11;8.00;88.10
21805;DHT22;11064;47.102;15.452;2023-03-08T18:51:39;8.10;87.70
21805;DHT22;11064;47.102;15.452;2023-03-08T18:54:05;8.10;88.00
21805;DHT22;11064;47.102;15.452;2023-03-08T18:56:36;8.00;88.60
21805;DHT22;11064;47.102;15.452;2023-03-08T18:59:05;7.90;89.00
21805;DHT22;11064;47.102;15.452;2023-03-08T19:01:32;7.70;90.00
21805;DHT22;11064;47.102;15.452;2023-03-08T19:04:00;7.60;90.10
21805;DHT22;11064;47.102;15.452;2023-03-08T19:06:29;7.70;90.40
21805;DHT22;11064;47.102;15.452;2023-03-08T19:08:55;7.50;90.60
21805;DHT22;11064;47.102;15.452;2023-03-08T19:11:25;7.40;90.90
21805;DHT22;11064;47.102;15.452;2023-03-08T19:13:51;7.60;90.50
21805;DHT22;11064;47.102;15.452;2023-03-08T19:18:47;7.40;91.10
21805;DHT22;11064;47.102;15.452;2023-03-08T19:21:20;7.50;91.00
21805;DHT22;11064;47.102;15.452;2023-03-08T19:23:50;7.50;91.00
21805;DHT22;11064;47.102;15.452;2023-03-08T19:26:28;7.60;90.80
21805;DHT22;11064;47.102;15.452;2023-03-08T19:29:21;7.60;90.70
21805;DHT22;11064;47.102;15.452;2023-03-08T19:32:01;8.10;89.90
21805;DHT22;11064;47.102;15.452;2023-03-08T19:34:37;8.20;89.50
21805;DHT22;11064;47.102;15.452;2023-03-08T19:37:05;8.20;89.60
21805;DHT22;11064;47.102;15.452;2023-03-08T19:39:34;8.50;88.30
21805;DHT22;11064;47.102;15.452;2023-03-08T19:42:05;8.50;88.00
21805;DHT22;11064;47.102;15.452;2023-03-08T19:44:32;8.40;88.60
21805;DHT22;11064;47.102;15.452;2023-03-08T19:47:00;8.70;87.60
21805;DHT22;11064;47.102;15.452;2023-03-08T19:49:31;8.80;88.00
21805;DHT22;11064;47.102;15.452;2023-03-08T19:52:02;8.80;86.90
21805;DHT22;11064;47.102;15.452;2023-03-08T19:54:29;8.60;87.40
21805;DHT22;11064;47.102;15.452;2023-03-08T19:56:57;8.50;87.50
21805;DHT22;11064;47.102;15.452;2023-03-08T19:59:24;8.40;88.30
21805;DHT22;11064;47.102;15.452;2023-03-08T20:01:52;8.40;88.30
21805;DHT22;11064;47.102;15.452;2023-03-08T20:04:19;8.40;88.40
21805;DHT22;11064;47.102;15.452;2023-03-08T20:06:49;8.40;89.00
21805;DHT22;11064;47.102;15.452;2023-03-08T20:09:18;8.30;89.30
21805;DHT22;11064;47.102;15.452;2023-03-08T20:11:52;8.30;90.10
21805;DHT22;11064;47.102;15.452;2023-03-08T20:14:22;8.20;90.40
21805;DHT22;11064;47.102;15.452;2023-03-08T20:16:49;8.20;90.50
21805;DHT22;11064;47.102;15.452;2023-03-08T20:19:16;8.20;90.40
21805;DHT22;11064;47.102;15.452;2023-03-08T20:21:43;8.10;90.80
21805;DHT22;11064;47.102;15.452;2023-03-08T20:24:09;8.10;91.00
21805;DHT22;11064;47.102;15.452;2023-03-08T20:26:36;8.00;91.20
21805;DHT22;11064;47.102;15.452;2023-03-08T20:29:04;8.10;91.50
21805;DHT22;11064;47.102;15.452;2023-03-08T20:31:34;8.00;91.90
21805;DHT22;11064;47.102;15.452;2023-03-08T20:34:00;7.90;92.10
21805;DHT22;11064;47.102;15.452;2023-03-08T20:36:28;7.90;92.30
21805;DHT22;11064;47.102;15.452;2023-03-08T20:38:56;7.90;92.10
21805;DHT22;11064;47.102;15.452;2023-03-08T20:41:24;8.10;91.50
21805;DHT22;11064;47.102;15.452;2023-03-08T20:43:51;8.10;91.70
21805;DHT22;11064;47.102;15.452;2023-03-08T20:46:21;8.10;91.20
21805;DHT22;11064;47.102;15.452;2023-03-08T20:48:48;8.10;91.50
21805;DHT22;11064;47.102;15.452;2023-03-08T20:51:17;8.10;91.30
21805;DHT22;11064;47.102;15.452;2023-03-08T20:53:46;8.20;91.30
21805;DHT22;11064;47.102;15.452;2023-03-08T20:56:15;8.20;91.10
21805;DHT22;11064;47.102;15.452;2023-03-08T20:58:46;8.30;91.00
21805;DHT22;11064;47.102;15.452;2023-03-08T21:01:15;8.40;91.00
21805;DHT22;11064;47.102;15.452;2023-03-08T21:03:44;8.50;90.60
21805;DHT22;11064;47.102;15.452;2023-03-08T21:06:18;8.60;90.40
21805;DHT22;11064;47.102;15.452;2023-03-08T21:08:46;8.60;90.80
21805;DHT22;11064;47.102;15.452;2023-03-08T21:11:14;8.60;90.60
21805;DHT22;11064;47.102;15.452;2023-03-08T21:13:41;8.60;90.60
21805;DHT22;11064;47.102;15.452;2023-03-08T21:16:11;8.60;90.40
21805;DHT22;11064;47.102;15.452;2023-03-08T21:18:38;8.70;90.20
21805;DHT22;11064;47.102;15.452;2023-03-08T21:21:04;8.70;90.30
21805;DHT22;11064;47.102;15.452;2023-03-08T21:23:31;8.60;90.30
21805;DHT22;11064;47.102;15.452;2023-03-08T21:25:59;8.60;90.50
21805;DHT22;11064;47.102;15.452;2023-03-08T21:28:28;8.50;90.70
21805;DHT22;11064;47.102;15.452;2023-03-08T21:30:54;8.30;90.90
21805;DHT22;11064;47.102;15.452;2023-03-08T21:33:20;8.20;91.20
21805;DHT22;11064;47.102;15.452;2023-03-08T21:35:46;8.40;90.70
21805;DHT22;11064;47.102;15.452;2023-03-08T21:38:12;8.50;90.30
21805;DHT22;11064;47.102;15.452;2023-03-08T21:40:40;8.90;89.50
21805;DHT22;11064;47.102;15.452;2023-03-08T21:43:07;8.90;89.10
21805;DHT22;11064;47.102;15.452;2023-03-08T21:45:40;9.00;89.20
21805;DHT22;11064;47.102;15.452;2023-03-08T21:48:07;9.00;89.30
21805;DHT22;11064;47.102;15.452;2023-03-08T21:50:36;9.00;89.20
21805;DHT22;11064;47.102;15.452;2023-03-08T21:53:03;9.00;89.30
21805;DHT22;11064;47.102;15.452;2023-03-08T21:55:29;9.00;88.90
21805;DHT22;11064;47.102;15.452;2023-03-08T21:57:54;9.20;88.90
21805;DHT22;11064;47.102;15.452;2023-03-08T22:00:20;9.20;89.10
21805;DHT22;11064;47.102;15.452;2023-03-08T22:02:50;9.30;88.50
21805;DHT22;11064;47.102;15.452;2023-03-08T22:05:16;9.20;88.70
21805;DHT22;11064;47.102;15.452;2023-03-08T22:07:41;9.20;88.70
21805;DHT22;11064;47.102;15.452;2023-03-08T22:10:09;9.10;89.40
21805;DHT22;11064;47.102;15.452;2023-03-08T22:12:36;9.00;89.30
21805;DHT22;11064;47.102;15.452;2023-03-08T22:15:02;8.90;89.40